Latest Weather Observations for McArthur River Mine

IDD60801

Issued at 8:05 pm CST Monday 21 April 2014 (issued every 30 minutes, with the page automatically refreshed every 10 minutes)

About weather observations | Map of weather stations | Latest weather observations for NT | Other Formats
Station Details ID: 014704 Name: MCARTHUR RIVER MINE AIRPORT Lat: -16.44 Lon: 136.08 Height: 40.0 m
Data from the previous 72 hours. | See also: Recent months at McArthur River Mine
Date/Time
CST
Temp
°C
App
Temp
°C
Dew
Point
Rel
Hum
%
Delta-T
°C
Wind Press
QNH
hPa
Press
MSL
hPa
Rain
since 9 am
mm
Dir
 
Spd
km/h
Gust
km/h
Spd
kts
Gust
kts
21/08:00pm 28.6 29.9 19.2 56 6.1 NNE 11 19 6 10 1012.5 - 0.0
21/07:30pm 29.3 29.3 19.0 53 6.7 NNE 17 26 9 14 1012.2 - 0.0
21/07:00pm 29.6 30.9 20.2 57 6.2 NE 13 24 7 13 1011.8 - 0.0
21/06:30pm 30.0 31.3 20.8 57 6.1 NE 15 22 8 12 1011.5 - 0.0
21/06:00pm 30.7 31.7 20.3 53 6.9 NE 15 24 8 13 1011.1 1010.8 0.0
21/05:30pm 31.3 31.0 20.3 52 7.3 NE 22 30 12 16 1010.7 - 0.0
21/05:00pm 32.1 33.2 19.7 48 8.2 NNE 13 17 7 9 1010.2 - 0.0
21/04:30pm 32.8 33.5 17.0 38 10.1 NNE 9 15 5 8 1009.9 - 0.0
21/04:00pm 32.8 33.7 16.6 38 10.3 ENE 7 11 4 6 1009.9 - 0.0
21/03:30pm 34.5 34.2 15.4 32 12.0 ENE 11 22 6 12 1009.9 - 0.0
21/03:00pm 34.7 34.8 15.6 32 12.0 ENE 9 15 5 8 1010.1 1009.8 0.0
21/02:30pm 34.4 33.7 15.3 31 11.9 SE 13 17 7 9 1010.3 - 0.0
21/02:00pm 34.7 34.5 15.6 32 12.0 ESE 11 19 6 10 1010.6 - 0.0
21/01:30pm 34.1 33.3 16.0 34 11.4 E 15 20 8 11 1010.9 - 0.0
21/01:00pm 34.0 34.1 16.4 35 11.2 E 11 20 6 11 1011.2 - 0.0
21/12:30pm 33.6 32.9 16.5 36 10.8 E 15 28 8 15 1011.6 - 0.0
21/12:00pm 33.2 32.7 17.0 38 10.3 E 15 22 8 12 1012.1 1011.8 0.0
21/11:30am 32.7 32.2 17.7 40 9.6 E 17 28 9 15 1012.6 - 0.0
21/11:00am 31.9 32.0 17.4 42 9.3 E 13 19 7 10 1013.1 - 0.0
21/10:30am 31.7 33.3 20.0 50 7.7 E 11 19 6 10 1013.4 - 0.0
21/10:00am 29.6 30.8 19.0 53 6.9 SE 11 17 6 9 1013.5 - 0.0
21/09:30am 28.5 30.2 21.0 64 5.0 SSE 13 20 7 11 1013.5 - 0.0
21/09:00am 27.1 29.6 21.8 73 3.5 SSE 11 17 6 9 1013.5 1013.2 0.0
21/08:30am 25.2 28.4 22.3 84 1.9 S 9 15 5 8 1013.2 - 0.0
21/08:00am 22.6 27.3 22.6 100 0.0 SSW 2 6 1 3 1013.0 - 0.0
21/07:30am 21.1 23.6 21.1 100 0.0 SW 9 11 5 6 1012.6 - 0.0
21/07:09am 20.5 22.7 20.5 100 0.0 SSW 9 11 5 6 1012.4 - 0.0
21/07:00am 20.3 23.8 20.3 100 0.0 SW 2 7 1 4 1012.2 - 0.0
21/06:52am 20.3 24.2 20.3 100 0.0 CALM 0 0 0 0 1012.1 - 0.0
21/06:30am 20.2 24.0 20.2 100 0.0 CALM 0 0 0 0 1011.9 - 0.0
21/06:09am 20.4 23.2 20.4 100 0.0 WSW 6 6 3 3 1011.7 - 0.0
21/06:00am 20.3 23.8 20.3 100 0.0 W 2 6 1 3 1011.7 1011.4 0.0
21/05:58am 20.3 24.2 20.3 100 0.0 CALM 0 6 0 3 1011.6 - 0.0
21/05:50am 20.3 24.2 20.3 100 0.0 CALM 0 0 0 0 1011.6 - 0.0
21/05:30am 20.4 23.6 20.4 100 0.0 W 4 6 2 3 1011.5 - 0.0
21/05:27am 20.4 23.6 20.4 100 0.0 WNW 4 7 2 4 1011.5 - 0.0
21/05:00am 20.6 24.2 20.6 100 0.0 WSW 2 6 1 3 1011.3 - 0.0
21/04:30am 20.8 24.1 20.8 100 0.0 SW 4 7 2 4 1011.2 - 0.0
21/04:00am 20.8 23.8 20.8 100 0.0 WSW 6 9 3 5 1011.3 - 0.0
21/03:30am 21.0 24.1 21.0 100 0.0 W 6 7 3 4 1011.2 - 0.0
21/03:00am 21.2 25.5 21.2 100 0.0 CALM 0 6 0 3 1011.2 1010.9 0.0
21/02:30am 21.1 25.4 21.1 100 0.0 CALM 0 6 0 3 1011.1 - 0.0
21/02:00am 21.5 24.8 21.5 100 0.0 W 6 7 3 4 1011.3 - 0.0
21/01:30am 22.0 26.3 22.0 100 0.0 SW 2 6 1 3 1011.7 - 0.0
21/01:00am 22.6 26.8 22.4 99 0.1 W 4 6 2 3 1011.9 - 0.0
21/12:30am 23.2 27.1 22.9 98 0.2 SW 7 9 4 5 1012.2 - 0.0
21/12:00am 23.8 27.8 22.8 94 0.7 SW 6 7 3 4 1012.3 1012.0 0.0
 
Date/Time
CST
Temp
°C
App
Temp
°C
Dew
Point
Rel
Hum
%
Delta-T
°C
Wind Press
QNH
hPa
Press
MSL
hPa
Rain
since 9 am
mm
Dir
 
Spd
km/h
Gust
km/h
Spd
kts
Gust
kts
20/11:30pm 24.1 27.8 22.5 91 1.1 SSW 7 9 4 5 1012.4 - 0.0
20/11:00pm 25.2 30.4 22.9 87 1.6 CALM 0 0 0 0 1012.5 - 0.0
20/10:30pm 26.1 30.5 22.8 82 2.2 NE 4 11 2 6 1012.6 - 0.0
20/10:00pm 26.7 30.2 22.8 79 2.6 NE 9 15 5 8 1012.7 - 0.0
20/09:30pm 27.0 30.2 22.4 76 3.1 NE 9 17 5 9 1012.7 - 0.0
20/09:00pm 27.3 30.3 22.0 73 3.6 NE 9 15 5 8 1012.5 1012.2 0.0
20/08:30pm 27.8 30.7 21.8 70 4.0 NNE 9 17 5 9 1012.1 - 0.0
20/08:00pm 28.2 30.4 21.2 65 4.7 NE 11 17 6 9 1011.8 - 0.0
20/07:30pm 28.8 30.7 21.3 64 5.0 NNE 13 19 7 10 1011.4 - 0.0
20/07:00pm 29.6 29.8 19.3 54 6.7 NNE 17 24 9 13 1011.0 - 0.0
20/06:30pm 30.5 30.3 17.6 46 8.2 NNE 15 20 8 11 1010.5 - 0.0
20/06:00pm 32.3 30.8 12.0 29 12.0 E 11 17 6 9 1010.2 1009.9 0.0
20/05:30pm 33.8 32.8 12.2 27 12.9 ESE 9 13 5 7 1009.8 - 0.0
20/05:00pm 34.0 32.9 11.8 26 13.2 ESE 9 15 5 8 1009.5 - 0.0
20/04:30pm 34.1 32.8 12.4 26 13.0 SSE 11 17 6 9 1009.3 - 0.0
20/04:00pm 35.1 33.3 12.1 25 13.8 ESE 13 22 7 12 1009.1 - 0.0
20/03:30pm 35.5 33.6 13.1 26 13.6 ESE 15 22 8 12 1009.0 - 0.0
20/03:00pm 33.6 32.3 13.6 29 12.2 ESE 13 19 7 10 1009.1 1008.8 0.0
20/02:30pm 34.2 33.2 14.7 31 12.1 ESE 13 20 7 11 1009.3 - 0.0
20/02:00pm 33.7 31.6 13.7 30 12.2 SE 17 22 9 12 1009.5 - 0.0
20/01:30pm 33.4 32.7 15.4 34 11.2 SE 13 20 7 11 1009.9 - 0.0
20/01:00pm 34.4 33.0 13.3 28 12.8 E 13 24 7 13 1010.3 - 0.0
20/12:30pm 34.4 33.5 14.8 30 12.2 ESE 13 22 7 12 1010.6 - 0.0
20/12:00pm 33.5 31.9 15.0 32 11.5 SE 17 28 9 15 1011.1 1010.8 0.0
20/11:30am 33.3 32.5 16.2 36 10.8 ESE 15 26 8 14 1011.7 - 0.0
20/11:00am 32.9 32.4 15.8 35 10.7 SE 13 24 7 13 1012.2 - 0.0
20/10:30am 31.6 31.2 15.1 36 10.2 SE 11 24 6 13 1012.7 - 0.0
20/10:00am 31.3 30.7 15.7 39 9.7 SSE 13 19 7 10 1012.9 - 0.0
20/09:30am 29.1 29.2 15.6 44 8.3 SSE 9 15 5 8 1013.1 - 0.0
20/09:00am 26.8 26.6 15.8 51 6.7 S 11 15 6 8 1013.0 1012.7 0.0
20/08:30am 24.8 25.4 15.7 57 5.5 SSW 7 13 4 7 1013.0 - 0.0
20/08:00am 22.4 23.5 16.7 70 3.5 WSW 6 7 3 4 1013.0 - 0.0
20/07:30am 20.2 21.5 17.2 83 1.8 SW 6 7 3 4 1012.7 - 0.0
20/07:00am 18.7 20.1 17.9 95 0.5 SSW 7 9 4 5 1012.4 - 0.0
20/06:30am 19.2 20.7 18.0 93 0.7 SW 7 11 4 6 1012.0 - 0.0
20/06:00am 18.8 20.4 17.8 94 0.6 WSW 6 7 3 4 1011.4 1011.1 0.0
20/05:30am 19.4 21.1 18.1 92 0.8 SW 6 7 3 4 1011.1 - 0.0
20/05:00am 19.3 21.1 18.3 94 0.6 SW 6 7 3 4 1010.8 - 0.0
20/04:30am 19.3 21.0 18.1 93 0.7 WSW 6 7 3 4 1010.8 - 0.0
20/04:00am 19.5 21.0 18.0 91 0.9 WSW 7 9 4 5 1011.0 - 0.0
20/03:30am 19.6 21.1 17.7 89 1.2 W 6 7 3 4 1010.8 - 0.0
20/03:00am 19.8 21.7 17.6 87 1.4 SW 4 7 2 4 1011.0 1010.7 0.0
20/02:30am 20.0 21.8 17.4 85 1.6 WNW 4 7 2 4 1010.9 - 0.0
20/02:00am 20.5 21.4 16.5 78 2.4 SSW 7 9 4 5 1011.0 - 0.0
20/01:30am 20.3 21.4 16.7 80 2.2 W 6 7 3 4 1011.4 - 0.0
20/01:00am 20.3 21.2 16.7 80 2.2 WNW 7 9 4 5 1011.7 - 0.0
20/12:30am 21.0 21.9 16.6 76 2.7 WSW 7 9 4 5 1011.9 - 0.0
20/12:00am 21.3 22.5 17.3 78 2.5 W 7 9 4 5 1012.1 1011.8 0.0
 
Date/Time
CST
Temp
°C
App
Temp
°C
Dew
Point
Rel
Hum
%
Delta-T
°C
Wind Press
QNH
hPa
Press
MSL
hPa
Rain
since 9 am
mm
Dir
 
Spd
km/h
Gust
km/h
Spd
kts
Gust
kts
19/11:30pm 22.2 24.8 17.6 75 2.8 CALM 0 6 0 3 1012.5 - 0.0
19/11:00pm 22.9 25.9 18.4 76 2.8 CALM 0 0 0 0 1012.7 - 0.0
19/10:30pm 24.1 26.0 18.5 71 3.5 NE 6 9 3 5 1012.8 - 0.0
19/10:00pm 24.2 26.0 18.2 69 3.8 NE 6 7 3 4 1013.0 - 0.0
19/09:30pm 24.8 26.3 17.5 64 4.6 NNE 6 7 3 4 1013.1 - 0.0
19/09:00pm 25.9 26.7 15.9 54 6.1 NNE 6 7 3 4 1012.8 1012.5 0.0
19/08:30pm 26.2 26.1 14.0 47 7.2 NNE 7 11 4 6 1012.6 - 0.0
19/08:00pm 27.2 25.7 10.4 35 9.4 NNE 9 11 5 6 1012.2 - 0.0
19/07:30pm 27.8 26.5 10.1 33 9.9 ENE 7 9 4 5 1011.7 - 0.0
19/07:00pm 28.3 26.5 8.1 28 11.0 E 7 9 4 5 1011.3 - 0.0
19/06:30pm 28.6 27.0 8.8 29 10.9 E 7 9 4 5 1011.1 - 0.0
19/06:00pm 29.6 28.4 10.2 30 11.0 ESE 7 11 4 6 1011.0 1010.7 0.0
19/05:30pm 31.2 29.5 8.2 24 12.7 SE 7 11 4 6 1010.7 - 0.0
19/05:00pm 32.2 29.1 5.7 19 14.1 E 11 17 6 9 1010.3 - 0.0
19/04:30pm 33.6 29.5 4.3 16 15.4 ESE 15 20 8 11 1010.0 - 0.0
19/04:00pm 34.0 30.6 9.3 22 14.1 E 17 26 9 14 1009.8 - 0.0
19/03:30pm 34.0 31.0 10.6 24 13.6 E 17 24 9 13 1009.8 - 0.0
19/03:00pm 33.8 31.1 11.6 26 13.1 SE 17 26 9 14 1009.8 1009.5 0.0
19/02:30pm 33.7 31.1 12.1 27 12.8 ESE 17 26 9 14 1010.0 - 0.0
19/02:00pm 33.7 31.1 13.2 29 12.4 SE 19 30 10 16 1010.4 - 0.0
19/01:30pm 33.5 30.9 11.9 27 12.8 S 17 24 9 13 1010.8 - 0.0
19/01:00pm 33.6 30.6 12.0 27 12.8 SE 19 28 10 15 1011.3 - 0.0
19/12:30pm 33.6 30.6 12.0 27 12.8 SSE 19 26 10 14 1011.6 - 0.0
19/12:00pm 33.8 30.8 12.7 27 12.7 SE 20 28 11 15 1011.8 1011.5 0.0
19/11:30am 33.2 30.0 11.1 26 12.9 SE 19 26 10 14 1012.3 - 0.0
19/11:00am 32.6 29.4 10.0 25 12.9 SE 17 28 9 15 1012.7 - 0.0
19/10:30am 32.4 28.6 9.2 24 13.1 SE 19 30 10 16 1013.2 - 0.0
19/10:00am 30.8 27.1 7.9 24 12.6 SE 17 24 9 13 1013.5 - 0.0
19/09:30am 29.9 26.4 8.9 27 11.7 SE 17 28 9 15 1013.5 - 0.0
19/09:00am 28.4 25.9 11.0 34 9.9 S 15 20 8 11 1013.3 1013.0 0.0
19/08:30am 27.5 27.2 16.5 51 6.8 SSE 13 20 7 11 1013.3 - 0.0
19/08:00am 26.3 29.0 21.3 74 3.3 S 9 13 5 7 1013.1 - 0.0
19/07:30am 24.3 29.2 24.3 100 0.0 SW 6 7 3 4 1012.8 - 0.0
19/07:00am 22.9 28.1 22.9 100 0.0 CALM 0 0 0 0 1012.6 - 0.0
19/06:30am 22.5 27.5 22.5 100 0.0 CALM 0 2 0 1 1012.4 - 0.0
19/06:00am 23.1 27.1 23.1 100 0.0 SSW 7 9 4 5 1012.3 1012.0 0.0
19/05:30am 22.8 26.8 22.8 100 0.0 SSW 6 7 3 4 1012.3 - 0.0
19/05:00am 22.5 27.5 22.5 100 0.0 CALM 0 0 0 0 1012.1 - 0.0
19/04:30am 22.6 27.7 22.6 100 0.0 CALM 0 0 0 0 1012.0 - 0.0
19/04:00am 22.8 27.2 22.8 100 0.0 SW 4 7 2 4 1011.9 - 0.0
19/03:30am 22.6 26.5 22.6 100 0.0 WNW 6 7 3 4 1011.8 - 0.0
19/03:00am 22.7 26.7 22.7 100 0.0 NW 6 9 3 5 1011.8 1011.5 0.0
19/02:30am 23.1 28.4 23.1 100 0.0 CALM 0 6 0 3 1012.0 - 0.0
19/02:00am 23.2 27.8 23.2 100 0.0 SSW 4 7 2 4 1012.0 - 0.0
19/01:30am 23.6 29.2 23.6 100 0.0 CALM 0 0 0 0 1012.5 - 0.0
19/01:00am 23.9 29.6 23.7 99 0.1 CALM 0 2 0 1 1012.8 - 0.0
19/12:30am 24.2 28.6 23.5 96 0.5 SW 6 7 3 4 1013.3 - 0.0
19/12:00am 24.6 29.5 23.6 94 0.7 WSW 4 6 2 3 1013.8 1013.5 0.0
 
Date/Time
CST
Temp
°C
App
Temp
°C
Dew
Point
Rel
Hum
%
Delta-T
°C
Wind Press
QNH
hPa
Press
MSL
hPa
Rain
since 9 am
mm
Dir
 
Spd
km/h
Gust
km/h
Spd
kts
Gust
kts
18/11:30pm 24.7 30.3 23.5 93 0.8 CALM 0 0 0 0 1014.1 - 0.0
18/11:00pm 25.3 31.0 23.7 91 1.1 CALM 0 0 0 0 1014.1 - 0.0
18/10:30pm 25.7 31.0 23.7 89 1.4 NW 2 6 1 3 1014.0 - 0.0
18/10:00pm 26.1 30.8 23.4 85 1.8 N 4 6 2 3 1014.0 - 0.0
18/09:30pm 26.7 30.8 23.0 80 2.5 N 6 7 3 4 1013.9 - 0.0
18/09:00pm 26.9 31.0 22.9 79 2.7 NNW 6 7 3 4 1013.9 1013.6 0.0
18/08:30pm 27.4 31.0 22.3 73 3.4 N 7 9 4 5 1013.6 - 0.0

Other Formats:

Comma delimited format used in spreadsheet applications
http://www.bom.gov.au/fwo/IDD60801/IDD60801.94239.axf

JavaScript Object Notation format (JSON) in row-major order
http://www.bom.gov.au/fwo/IDD60801/IDD60801.94239.json